DENIK EDWI-EDXH
Flight info
| Callsign | DENIK |
|---|---|
| Flight time | 0h 23m |
| Altitude | 6000 |
| Route | VFR |
| Aircraft | BT36/L-BDFGLORY/S |
Departure
| Time | 2026-05-04 19:33 |
|---|---|
| Airport | JadeWeser Airport (EDWI) |
Arrival
| Time | 2026-05-04 19:57 |
|---|---|
| Airport | Helgoland-Düne Airport (EDXH) |
| Time | Latitude | Longitude | Altitude | Speed | Heading |
|---|---|---|---|---|---|
| 2026-05-04 19:29 | 53.50667 | 8.05185 | 31 ft | 0 kts | 167° |
| 2026-05-04 19:31 | 53.50664 | 8.05186 | 31 ft | 3 kts | 186° |
| 2026-05-04 19:31 | 53.50632 | 8.05073 | 31 ft | 19 kts | 199° |
| 2026-05-04 19:32 | 53.50473 | 8.05021 | 31 ft | 25 kts | 183° |
| 2026-05-04 19:32 | 53.50305 | 8.04992 | 31 ft | 22 kts | 184° |
| 2026-05-04 19:32 | 53.50112 | 8.04959 | 30 ft | 29 kts | 186° |
| 2026-05-04 19:32 | 53.50001 | 8.04952 | 30 ft | 8 kts | 130° |
| 2026-05-04 19:33 | 53.49981 | 8.05059 | 31 ft | 10 kts | 60° |
| 2026-05-04 19:33 | 53.50202 | 8.05212 | 45 ft | 73 kts | 21° |
| 2026-05-04 19:33 | 53.50721 | 8.05563 | 452 ft | 84 kts | 20° |
| 2026-05-04 19:33 | 53.51286 | 8.05944 | 895 ft | 92 kts | 21° |
| 2026-05-04 19:34 | 53.51903 | 8.06351 | 1315 ft | 100 kts | 18° |
| 2026-05-04 19:34 | 53.52591 | 8.06810 | 1656 ft | 120 kts | 17° |
| 2026-05-04 19:34 | 53.53384 | 8.07311 | 2122 ft | 126 kts | 18° |
| 2026-05-04 19:34 | 53.54234 | 8.07891 | 2395 ft | 144 kts | 19° |
| 2026-05-04 19:35 | 53.55220 | 8.08557 | 2473 ft | 160 kts | 18° |
| 2026-05-04 19:35 | 53.56291 | 8.09271 | 2516 ft | 168 kts | 19° |
| 2026-05-04 19:35 | 53.57368 | 8.10004 | 2469 ft | 170 kts | 17° |
| 2026-05-04 19:35 | 53.58484 | 8.10680 | 2347 ft | 170 kts | 17° |
| 2026-05-04 19:36 | 53.59552 | 8.11355 | 2428 ft | 162 kts | 23° |
| 2026-05-04 19:36 | 53.60307 | 8.12732 | 2485 ft | 163 kts | 62° |
| 2026-05-04 19:36 | 53.60732 | 8.14522 | 2481 ft | 166 kts | 78° |
| 2026-05-04 19:36 | 53.60501 | 8.16380 | 2483 ft | 168 kts | 125° |
| 2026-05-04 19:37 | 53.59554 | 8.17433 | 2488 ft | 164 kts | 172° |
| 2026-05-04 19:37 | 53.58446 | 8.17275 | 2487 ft | 161 kts | 195° |
| 2026-05-04 19:37 | 53.57332 | 8.16910 | 2495 ft | 162 kts | 194° |
| 2026-05-04 19:37 | 53.56367 | 8.16074 | 2492 ft | 156 kts | 231° |
| 2026-05-04 19:38 | 53.55733 | 8.14620 | 2499 ft | 156 kts | 237° |
| 2026-05-04 19:38 | 53.55104 | 8.13123 | 2500 ft | 156 kts | 236° |
| 2026-05-04 19:38 | 53.54220 | 8.12123 | 2496 ft | 161 kts | 198° |
| 2026-05-04 19:38 | 53.53204 | 8.11318 | 2378 ft | 166 kts | 217° |
| 2026-05-04 19:39 | 53.52344 | 8.09998 | 1930 ft | 174 kts | 231° |
| 2026-05-04 19:39 | 53.51529 | 8.08402 | 1205 ft | 186 kts | 233° |
| 2026-05-04 19:39 | 53.50701 | 8.06688 | 607 ft | 186 kts | 238° |
| 2026-05-04 19:39 | 53.49974 | 8.05027 | 391 ft | 174 kts | 213° |
| 2026-05-04 19:40 | 53.48910 | 8.04282 | 442 ft | 168 kts | 183° |
| 2026-05-04 19:40 | 53.47864 | 8.05038 | 699 ft | 171 kts | 125° |
| 2026-05-04 19:40 | 53.47761 | 8.06853 | 945 ft | 164 kts | 57° |
| 2026-05-04 19:40 | 53.48664 | 8.07911 | 1290 ft | 157 kts | 24° |
| 2026-05-04 19:41 | 53.49708 | 8.08391 | 1589 ft | 158 kts | 0° |
| 2026-05-04 19:41 | 53.50791 | 8.08456 | 1898 ft | 158 kts | 1° |
| 2026-05-04 19:41 | 53.51908 | 8.08618 | 2213 ft | 161 kts | 3° |
| 2026-05-04 19:41 | 53.53013 | 8.08831 | 2601 ft | 159 kts | 5° |
| 2026-05-04 19:42 | 53.54119 | 8.09110 | 2896 ft | 165 kts | 6° |
| 2026-05-04 19:42 | 53.55305 | 8.09411 | 2920 ft | 182 kts | 6° |
| 2026-05-04 19:42 | 53.56587 | 8.09740 | 2807 ft | 188 kts | 6° |
| 2026-05-04 19:42 | 53.57886 | 8.10081 | 2693 ft | 191 kts | 6° |
| 2026-05-04 19:43 | 53.59188 | 8.10417 | 2571 ft | 191 kts | 6° |
| 2026-05-04 19:43 | 53.60499 | 8.10760 | 2504 ft | 188 kts | 6° |
| 2026-05-04 19:43 | 53.61777 | 8.11096 | 2506 ft | 183 kts | 6° |
| 2026-05-04 19:43 | 53.63016 | 8.11426 | 2500 ft | 181 kts | 6° |
| 2026-05-04 19:44 | 53.64267 | 8.11766 | 2496 ft | 180 kts | 6° |
| 2026-05-04 19:44 | 53.65499 | 8.12094 | 2496 ft | 180 kts | 4° |
| 2026-05-04 19:44 | 53.66721 | 8.11789 | 2493 ft | 177 kts | 342° |
| 2026-05-04 19:44 | 53.67908 | 8.11269 | 2499 ft | 177 kts | 343° |
| 2026-05-04 19:45 | 53.69108 | 8.10761 | 2497 ft | 177 kts | 343° |
| 2026-05-04 19:45 | 53.70290 | 8.10256 | 2493 ft | 176 kts | 343° |
| 2026-05-04 19:45 | 53.71481 | 8.09745 | 2496 ft | 176 kts | 343° |
| 2026-05-04 19:45 | 53.72660 | 8.09236 | 2495 ft | 176 kts | 343° |
| 2026-05-04 19:46 | 53.73848 | 8.08724 | 2496 ft | 176 kts | 343° |
| 2026-05-04 19:46 | 53.75027 | 8.08216 | 2493 ft | 176 kts | 343° |
| 2026-05-04 19:46 | 53.76214 | 8.07706 | 2498 ft | 175 kts | 343° |
| 2026-05-04 19:46 | 53.77407 | 8.07196 | 2504 ft | 176 kts | 343° |
| 2026-05-04 19:47 | 53.78593 | 8.06687 | 2497 ft | 177 kts | 343° |
| 2026-05-04 19:47 | 53.79786 | 8.06179 | 2500 ft | 176 kts | 343° |
| 2026-05-04 19:47 | 53.80964 | 8.05675 | 2498 ft | 176 kts | 343° |
| 2026-05-04 19:47 | 53.82158 | 8.05163 | 2500 ft | 176 kts | 343° |
| 2026-05-04 19:48 | 53.83334 | 8.04658 | 2498 ft | 176 kts | 343° |
| 2026-05-04 19:48 | 53.84512 | 8.04151 | 2506 ft | 175 kts | 343° |
| 2026-05-04 19:48 | 53.85300 | 8.03807 | 2506 ft | 176 kts | 343° |
| 2026-05-04 19:48 | 53.86493 | 8.03288 | 2501 ft | 176 kts | 343° |
| 2026-05-04 19:49 | 53.87675 | 8.02780 | 2499 ft | 175 kts | 343° |
| 2026-05-04 19:49 | 53.88805 | 8.02298 | 2503 ft | 175 kts | 343° |
| 2026-05-04 19:49 | 53.89982 | 8.01796 | 2499 ft | 176 kts | 343° |
| 2026-05-04 19:49 | 53.91178 | 8.01289 | 2504 ft | 176 kts | 343° |
| 2026-05-04 19:50 | 53.92357 | 8.00784 | 2512 ft | 176 kts | 343° |
| 2026-05-04 19:50 | 53.93541 | 8.00277 | 2510 ft | 177 kts | 343° |
| 2026-05-04 19:50 | 53.94740 | 7.99767 | 2508 ft | 176 kts | 343° |
| 2026-05-04 19:50 | 53.95923 | 7.99256 | 2485 ft | 178 kts | 343° |
| 2026-05-04 19:51 | 53.97138 | 7.98727 | 2358 ft | 181 kts | 343° |
| 2026-05-04 19:51 | 53.98383 | 7.98273 | 2228 ft | 183 kts | 348° |
| 2026-05-04 19:51 | 53.99633 | 7.97936 | 2109 ft | 183 kts | 349° |
| 2026-05-04 19:51 | 54.00903 | 7.97592 | 1973 ft | 183 kts | 349° |
| 2026-05-04 19:52 | 54.02149 | 7.97241 | 1853 ft | 182 kts | 349° |
| 2026-05-04 19:52 | 54.03401 | 7.96877 | 1724 ft | 181 kts | 349° |
| 2026-05-04 19:52 | 54.04631 | 7.96517 | 1591 ft | 181 kts | 349° |
| 2026-05-04 19:52 | 54.05878 | 7.96148 | 1518 ft | 178 kts | 349° |
| 2026-05-04 19:53 | 54.07072 | 7.95783 | 1513 ft | 174 kts | 349° |
| 2026-05-04 19:53 | 54.08255 | 7.95416 | 1511 ft | 172 kts | 349° |
| 2026-05-04 19:53 | 54.09436 | 7.95047 | 1506 ft | 171 kts | 349° |
| 2026-05-04 19:53 | 54.10570 | 7.94699 | 1490 ft | 159 kts | 349° |
| 2026-05-04 19:54 | 54.11595 | 7.94337 | 1564 ft | 140 kts | 347° |
| 2026-05-04 19:54 | 54.12499 | 7.94005 | 1434 ft | 130 kts | 347° |
| 2026-05-04 19:54 | 54.13331 | 7.93658 | 1370 ft | 120 kts | 346° |
| 2026-05-04 19:54 | 54.14094 | 7.93347 | 1335 ft | 106 kts | 351° |
| 2026-05-04 19:55 | 54.14804 | 7.93536 | 1237 ft | 104 kts | 13° |
| 2026-05-04 19:55 | 54.15476 | 7.93870 | 1111 ft | 91 kts | 6° |
| 2026-05-04 19:55 | 54.16091 | 7.93750 | 836 ft | 87 kts | 346° |
| 2026-05-04 19:55 | 54.16645 | 7.93447 | 504 ft | 84 kts | 343° |
| 2026-05-04 19:56 | 54.17151 | 7.92963 | 334 ft | 78 kts | 332° |
| 2026-05-04 19:56 | 54.17579 | 7.92504 | 226 ft | 67 kts | 332° |
| 2026-05-04 19:56 | 54.17953 | 7.92084 | 107 ft | 62 kts | 332° |
| 2026-05-04 19:56 | 54.18297 | 7.91700 | 16 ft | 57 kts | 330° |
| 2026-05-04 19:57 | 54.18541 | 7.91417 | 5 ft | 34 kts | 325° |
| 2026-05-04 19:57 | 54.18663 | 7.91467 | 6 ft | 0 kts | 47° |